sensor_id;sensor_type;location;lat;lon;timestamp;temperature;humidity
10417;DHT22;62605;49.432;8.680;2023-04-03T00:00:11;3.70;99.90
10417;DHT22;62605;49.432;8.680;2023-04-03T00:02:38;3.60;99.90
10417;DHT22;62605;49.432;8.680;2023-04-03T00:05:08;3.40;99.90
10417;DHT22;62605;49.432;8.680;2023-04-03T00:07:36;3.50;99.90
10417;DHT22;62605;49.432;8.680;2023-04-03T00:10:04;3.40;99.90
10417;DHT22;62605;49.432;8.680;2023-04-03T00:12:31;3.50;99.90
10417;DHT22;62605;49.432;8.680;2023-04-03T00:14:58;3.40;99.90
10417;DHT22;62605;49.432;8.680;2023-04-03T00:17:25;3.40;99.90
10417;DHT22;62605;49.432;8.680;2023-04-03T00:19:52;3.40;99.90
10417;DHT22;62605;49.432;8.680;2023-04-03T00:22:21;3.50;99.90
10417;DHT22;62605;49.432;8.680;2023-04-03T00:24:48;3.50;99.90
10417;DHT22;62605;49.432;8.680;2023-04-03T00:27:15;3.50;99.90
10417;DHT22;62605;49.432;8.680;2023-04-03T00:29:42;3.40;99.90
10417;DHT22;62605;49.432;8.680;2023-04-03T00:32:09;3.30;99.90
10417;DHT22;62605;49.432;8.680;2023-04-03T00:34:36;3.30;99.90
10417;DHT22;62605;49.432;8.680;2023-04-03T00:37:03;3.50;99.90
10417;DHT22;62605;49.432;8.680;2023-04-03T00:39:33;3.40;99.90
10417;DHT22;62605;49.432;8.680;2023-04-03T00:42:00;3.20;99.90
10417;DHT22;62605;49.432;8.680;2023-04-03T00:47:27;3.30;99.90
10417;DHT22;62605;49.432;8.680;2023-04-03T00:49:55;3.20;99.90
10417;DHT22;62605;49.432;8.680;2023-04-03T00:52:25;3.30;99.90
10417;DHT22;62605;49.432;8.680;2023-04-03T00:54:57;3.40;99.90
10417;DHT22;62605;49.432;8.680;2023-04-03T00:57:25;3.40;99.90
10417;DHT22;62605;49.432;8.680;2023-04-03T00:59:56;3.50;99.90
10417;DHT22;62605;49.432;8.680;2023-04-03T01:02:25;3.40;99.90
10417;DHT22;62605;49.432;8.680;2023-04-03T01:04:52;3.40;99.90
10417;DHT22;62605;49.432;8.680;2023-04-03T01:07:21;3.40;99.90
10417;DHT22;62605;49.432;8.680;2023-04-03T01:09:52;3.40;99.90
10417;DHT22;62605;49.432;8.680;2023-04-03T01:12:24;3.30;99.90
10417;DHT22;62605;49.432;8.680;2023-04-03T01:14:54;3.30;99.90
10417;DHT22;62605;49.432;8.680;2023-04-03T01:17:27;3.30;99.90
10417;DHT22;62605;49.432;8.680;2023-04-03T01:22:56;3.30;99.90
10417;DHT22;62605;49.432;8.680;2023-04-03T01:25:24;3.30;99.90
10417;DHT22;62605;49.432;8.680;2023-04-03T01:27:53;3.20;99.90
10417;DHT22;62605;49.432;8.680;2023-04-03T01:30:21;3.10;99.90
10417;DHT22;62605;49.432;8.680;2023-04-03T01:32:53;3.10;99.90
10417;DHT22;62605;49.432;8.680;2023-04-03T01:35:21;3.10;99.90
10417;DHT22;62605;49.432;8.680;2023-04-03T01:37:50;2.90;99.90
10417;DHT22;62605;49.432;8.680;2023-04-03T01:40:18;3.00;99.90
10417;DHT22;62605;49.432;8.680;2023-04-03T01:42:45;2.90;99.90
10417;DHT22;62605;49.432;8.680;2023-04-03T01:45:12;3.00;99.90
10417;DHT22;62605;49.432;8.680;2023-04-03T01:47:39;3.00;99.90
10417;DHT22;62605;49.432;8.680;2023-04-03T01:50:08;3.10;99.90
10417;DHT22;62605;49.432;8.680;2023-04-03T01:52:35;2.90;99.90
10417;DHT22;62605;49.432;8.680;2023-04-03T01:55:02;2.90;99.90
10417;DHT22;62605;49.432;8.680;2023-04-03T01:57:29;2.90;99.90
10417;DHT22;62605;49.432;8.680;2023-04-03T01:59:56;2.80;99.90
10417;DHT22;62605;49.432;8.680;2023-04-03T02:02:23;2.90;99.90
10417;DHT22;62605;49.432;8.680;2023-04-03T02:04:50;2.90;99.90
10417;DHT22;62605;49.432;8.680;2023-04-03T02:07:19;3.10;99.90
10417;DHT22;62605;49.432;8.680;2023-04-03T02:09:46;3.10;99.90
10417;DHT22;62605;49.432;8.680;2023-04-03T02:12:13;3.10;99.90
10417;DHT22;62605;49.432;8.680;2023-04-03T02:14:41;3.10;99.90
10417;DHT22;62605;49.432;8.680;2023-04-03T02:17:08;3.10;99.90
10417;DHT22;62605;49.432;8.680;2023-04-03T02:19:35;3.00;99.90
10417;DHT22;62605;49.432;8.680;2023-04-03T02:22:02;3.10;99.90
10417;DHT22;62605;49.432;8.680;2023-04-03T02:24:30;3.00;99.90
10417;DHT22;62605;49.432;8.680;2023-04-03T02:26:57;3.00;99.90
10417;DHT22;62605;49.432;8.680;2023-04-03T02:29:25;3.00;99.90
10417;DHT22;62605;49.432;8.680;2023-04-03T02:31:52;3.10;99.90
10417;DHT22;62605;49.432;8.680;2023-04-03T02:34:19;2.90;99.90
10417;DHT22;62605;49.432;8.680;2023-04-03T02:36:46;3.10;99.90
10417;DHT22;62605;49.432;8.680;2023-04-03T02:39:13;3.10;99.90
10417;DHT22;62605;49.432;8.680;2023-04-03T02:41:41;3.00;99.90
10417;DHT22;62605;49.432;8.680;2023-04-03T02:44:10;3.00;99.90
10417;DHT22;62605;49.432;8.680;2023-04-03T02:46:37;2.80;99.90
10417;DHT22;62605;49.432;8.680;2023-04-03T02:49:04;2.70;99.90
10417;DHT22;62605;49.432;8.680;2023-04-03T02:51:31;2.70;99.90
10417;DHT22;62605;49.432;8.680;2023-04-03T02:53:58;2.60;99.90
10417;DHT22;62605;49.432;8.680;2023-04-03T02:56:25;2.70;99.90
10417;DHT22;62605;49.432;8.680;2023-04-03T02:58:55;2.70;99.90
10417;DHT22;62605;49.432;8.680;2023-04-03T03:01:22;2.60;99.90
10417;DHT22;62605;49.432;8.680;2023-04-03T03:03:49;2.50;99.90
10417;DHT22;62605;49.432;8.680;2023-04-03T03:06:17;2.40;99.90
10417;DHT22;62605;49.432;8.680;2023-04-03T03:08:44;2.40;99.90
10417;DHT22;62605;49.432;8.680;2023-04-03T03:11:11;2.40;99.90
10417;DHT22;62605;49.432;8.680;2023-04-03T03:13:38;2.20;99.90
10417;DHT22;62605;49.432;8.680;2023-04-03T03:16:08;2.30;99.90
10417;DHT22;62605;49.432;8.680;2023-04-03T03:18:35;2.40;99.90
10417;DHT22;62605;49.432;8.680;2023-04-03T03:21:03;2.30;99.90
10417;DHT22;62605;49.432;8.680;2023-04-03T03:23:31;2.40;99.90
10417;DHT22;62605;49.432;8.680;2023-04-03T03:26:00;2.60;99.90
10417;DHT22;62605;49.432;8.680;2023-04-03T03:28:27;2.50;99.90
10417;DHT22;62605;49.432;8.680;2023-04-03T03:30:54;2.40;99.90
10417;DHT22;62605;49.432;8.680;2023-04-03T03:33:23;2.40;99.90
10417;DHT22;62605;49.432;8.680;2023-04-03T03:35:51;2.30;99.90
10417;DHT22;62605;49.432;8.680;2023-04-03T03:38:18;2.30;99.90
10417;DHT22;62605;49.432;8.680;2023-04-03T03:40:47;2.30;99.90
10417;DHT22;62605;49.432;8.680;2023-04-03T03:43:14;2.20;99.90
10417;DHT22;62605;49.432;8.680;2023-04-03T03:45:41;2.00;99.90
10417;DHT22;62605;49.432;8.680;2023-04-03T03:48:08;1.90;99.90
10417;DHT22;62605;49.432;8.680;2023-04-03T03:50:37;1.90;99.90
10417;DHT22;62605;49.432;8.680;2023-04-03T03:53:04;1.90;99.90
10417;DHT22;62605;49.432;8.680;2023-04-03T03:55:31;1.80;99.90
10417;DHT22;62605;49.432;8.680;2023-04-03T03:57:57;1.80;99.90
10417;DHT22;62605;49.432;8.680;2023-04-03T04:00:25;1.80;99.90
10417;DHT22;62605;49.432;8.680;2023-04-03T04:02:52;1.80;99.90
10417;DHT22;62605;49.432;8.680;2023-04-03T04:05:19;1.80;99.90
10417;DHT22;62605;49.432;8.680;2023-04-03T04:07:48;1.70;99.90
10417;DHT22;62605;49.432;8.680;2023-04-03T04:10:15;1.80;99.90
10417;DHT22;62605;49.432;8.680;2023-04-03T04:12:42;1.60;99.90
10417;DHT22;62605;49.432;8.680;2023-04-03T04:15:10;1.60;99.90
10417;DHT22;62605;49.432;8.680;2023-04-03T04:17:37;1.50;99.90
10417;DHT22;62605;49.432;8.680;2023-04-03T04:20:04;1.50;99.90
10417;DHT22;62605;49.432;8.680;2023-04-03T04:22:31;1.40;99.90
10417;DHT22;62605;49.432;8.680;2023-04-03T04:25:00;1.40;99.90
10417;DHT22;62605;49.432;8.680;2023-04-03T04:27:27;1.30;99.90
10417;DHT22;62605;49.432;8.680;2023-04-03T04:29:54;1.30;99.90
10417;DHT22;62605;49.432;8.680;2023-04-03T04:32:21;1.30;99.90
10417;DHT22;62605;49.432;8.680;2023-04-03T04:34:49;1.40;99.90
10417;DHT22;62605;49.432;8.680;2023-04-03T04:37:16;1.50;99.90
10417;DHT22;62605;49.432;8.680;2023-04-03T04:39:45;1.50;99.90
10417;DHT22;62605;49.432;8.680;2023-04-03T04:42:13;1.40;99.90
10417;DHT22;62605;49.432;8.680;2023-04-03T04:44:40;1.30;99.90
10417;DHT22;62605;49.432;8.680;2023-04-03T04:47:07;1.20;99.90
10417;DHT22;62605;49.432;8.680;2023-04-03T04:49:34;1.20;99.90
10417;DHT22;62605;49.432;8.680;2023-04-03T04:52:01;1.10;99.90
10417;DHT22;62605;49.432;8.680;2023-04-03T04:54:28;1.20;99.90
10417;DHT22;62605;49.432;8.680;2023-04-03T04:56:55;1.20;99.90
10417;DHT22;62605;49.432;8.680;2023-04-03T04:59:23;1.20;99.90
10417;DHT22;62605;49.432;8.680;2023-04-03T05:01:50;1.20;99.90
10417;DHT22;62605;49.432;8.680;2023-04-03T05:04:17;1.30;99.90
10417;DHT22;62605;49.432;8.680;2023-04-03T05:06:44;1.30;99.90
10417;DHT22;62605;49.432;8.680;2023-04-03T05:09:11;1.20;99.90
10417;DHT22;62605;49.432;8.680;2023-04-03T05:11:38;1.30;99.90
10417;DHT22;62605;49.432;8.680;2023-04-03T05:14:05;1.40;99.90
10417;DHT22;62605;49.432;8.680;2023-04-03T05:16:34;1.30;99.90
10417;DHT22;62605;49.432;8.680;2023-04-03T05:19:02;1.20;99.90
10417;DHT22;62605;49.432;8.680;2023-04-03T05:21:29;1.20;99.90
10417;DHT22;62605;49.432;8.680;2023-04-03T05:23:57;1.20;99.90
10417;DHT22;62605;49.432;8.680;2023-04-03T05:26:28;1.20;99.90
10417;DHT22;62605;49.432;8.680;2023-04-03T05:28:55;1.20;99.90
10417;DHT22;62605;49.432;8.680;2023-04-03T05:31:22;1.20;99.90
10417;DHT22;62605;49.432;8.680;2023-04-03T05:33:51;1.40;99.90
10417;DHT22;62605;49.432;8.680;2023-04-03T05:36:18;1.40;99.90
10417;DHT22;62605;49.432;8.680;2023-04-03T05:38:45;1.40;99.90
10417;DHT22;62605;49.432;8.680;2023-04-03T06:20:23;3.40;99.90
10417;DHT22;62605;49.432;8.680;2023-04-03T06:22:50;3.60;99.90
10417;DHT22;62605;49.432;8.680;2023-04-03T06:25:17;3.80;99.90
10417;DHT22;62605;49.432;8.680;2023-04-03T06:27:45;4.00;99.90
10417;DHT22;62605;49.432;8.680;2023-04-03T06:30:12;4.10;99.90
10417;DHT22;62605;49.432;8.680;2023-04-03T06:32:39;4.10;99.90
10417;DHT22;62605;49.432;8.680;2023-04-03T06:35:08;4.20;99.90
10417;DHT22;62605;49.432;8.680;2023-04-03T06:37:36;4.20;99.90
10417;DHT22;62605;49.432;8.680;2023-04-03T06:40:04;4.30;99.90
10417;DHT22;62605;49.432;8.680;2023-04-03T06:42:32;4.30;99.90
10417;DHT22;62605;49.432;8.680;2023-04-03T06:44:58;4.30;99.90
10417;DHT22;62605;49.432;8.680;2023-04-03T06:47:26;4.40;99.90
10417;DHT22;62605;49.432;8.680;2023-04-03T06:49:53;4.50;99.90
10417;DHT22;62605;49.432;8.680;2023-04-03T06:52:21;4.50;99.90
10417;DHT22;62605;49.432;8.680;2023-04-03T06:54:50;4.50;99.90
10417;DHT22;62605;49.432;8.680;2023-04-03T06:57:22;4.60;99.90
10417;DHT22;62605;49.432;8.680;2023-04-03T06:59:49;4.70;99.90
10417;DHT22;62605;49.432;8.680;2023-04-03T07:02:17;4.80;99.90
10417;DHT22;62605;49.432;8.680;2023-04-03T07:04:44;4.80;99.90
10417;DHT22;62605;49.432;8.680;2023-04-03T07:07:11;4.80;99.90
10417;DHT22;62605;49.432;8.680;2023-04-03T07:09:38;4.80;99.90
10417;DHT22;62605;49.432;8.680;2023-04-03T07:12:07;4.80;99.90
10417;DHT22;62605;49.432;8.680;2023-04-03T07:14:34;4.70;99.90
10417;DHT22;62605;49.432;8.680;2023-04-03T07:17:01;4.90;99.90
10417;DHT22;62605;49.432;8.680;2023-04-03T07:19:29;4.90;99.90
10417;DHT22;62605;49.432;8.680;2023-04-03T07:21:56;4.90;99.90
10417;DHT22;62605;49.432;8.680;2023-04-03T07:24:24;5.00;99.90
10417;DHT22;62605;49.432;8.680;2023-04-03T07:26:52;5.10;99.90
10417;DHT22;62605;49.432;8.680;2023-04-03T07:29:21;5.20;99.90
10417;DHT22;62605;49.432;8.680;2023-04-03T07:31:48;5.10;99.90
10417;DHT22;62605;49.432;8.680;2023-04-03T07:34:16;5.10;99.90
10417;DHT22;62605;49.432;8.680;2023-04-03T07:36:43;5.20;99.90
10417;DHT22;62605;49.432;8.680;2023-04-03T07:39:10;5.20;99.90
10417;DHT22;62605;49.432;8.680;2023-04-03T07:41:37;5.30;99.90
10417;DHT22;62605;49.432;8.680;2023-04-03T07:44:05;5.40;99.90
10417;DHT22;62605;49.432;8.680;2023-04-03T07:46:36;5.60;99.90
10417;DHT22;62605;49.432;8.680;2023-04-03T07:49:03;5.60;99.90
10417;DHT22;62605;49.432;8.680;2023-04-03T07:51:31;5.70;99.90
10417;DHT22;62605;49.432;8.680;2023-04-03T07:53:58;5.70;99.90
10417;DHT22;62605;49.432;8.680;2023-04-03T07:56:25;5.80;99.90
10417;DHT22;62605;49.432;8.680;2023-04-03T07:58:53;6.00;99.90
10417;DHT22;62605;49.432;8.680;2023-04-03T08:01:20;5.90;99.90
10417;DHT22;62605;49.432;8.680;2023-04-03T08:03:49;5.70;99.90
10417;DHT22;62605;49.432;8.680;2023-04-03T08:06:16;5.90;99.90
10417;DHT22;62605;49.432;8.680;2023-04-03T08:08:43;5.90;99.90
10417;DHT22;62605;49.432;8.680;2023-04-03T08:11:11;6.00;99.90
10417;DHT22;62605;49.432;8.680;2023-04-03T08:13:38;6.20;99.90
10417;DHT22;62605;49.432;8.680;2023-04-03T08:16:09;6.10;99.90
10417;DHT22;62605;49.432;8.680;2023-04-03T08:18:36;6.20;99.90
10417;DHT22;62605;49.432;8.680;2023-04-03T08:21:09;6.40;99.90
10417;DHT22;62605;49.432;8.680;2023-04-03T08:23:37;6.40;99.90
10417;DHT22;62605;49.432;8.680;2023-04-03T08:26:09;6.40;99.90
10417;DHT22;62605;49.432;8.680;2023-04-03T08:28:36;6.60;99.90
10417;DHT22;62605;49.432;8.680;2023-04-03T08:31:04;6.60;99.90
10417;DHT22;62605;49.432;8.680;2023-04-03T08:33:33;6.50;99.90
10417;DHT22;62605;49.432;8.680;2023-04-03T08:36:02;6.60;99.90
10417;DHT22;62605;49.432;8.680;2023-04-03T08:38:32;6.60;99.90
10417;DHT22;62605;49.432;8.680;2023-04-03T08:41:02;6.70;99.90
10417;DHT22;62605;49.432;8.680;2023-04-03T08:43:36;6.80;99.90
10417;DHT22;62605;49.432;8.680;2023-04-03T08:46:06;7.00;99.90
10417;DHT22;62605;49.432;8.680;2023-04-03T08:48:38;6.90;99.90
10417;DHT22;62605;49.432;8.680;2023-04-03T08:51:13;6.90;99.90
10417;DHT22;62605;49.432;8.680;2023-04-03T08:53:49;6.90;99.90
10417;DHT22;62605;49.432;8.680;2023-04-03T08:56:20;7.00;99.90
10417;DHT22;62605;49.432;8.680;2023-04-03T08:58:50;7.00;99.90
10417;DHT22;62605;49.432;8.680;2023-04-03T09:01:23;7.20;99.90
10417;DHT22;62605;49.432;8.680;2023-04-03T09:03:51;7.10;99.90
10417;DHT22;62605;49.432;8.680;2023-04-03T09:06:20;6.80;99.90
10417;DHT22;62605;49.432;8.680;2023-04-03T09:08:53;6.90;99.90
10417;DHT22;62605;49.432;8.680;2023-04-03T09:11:26;6.90;99.90
10417;DHT22;62605;49.432;8.680;2023-04-03T09:13:59;6.90;99.90
10417;DHT22;62605;49.432;8.680;2023-04-03T09:16:33;7.00;99.90
10417;DHT22;62605;49.432;8.680;2023-04-03T09:19:09;7.30;99.90
10417;DHT22;62605;49.432;8.680;2023-04-03T09:21:39;7.50;99.90
10417;DHT22;62605;49.432;8.680;2023-04-03T09:24:12;7.60;99.90
10417;DHT22;62605;49.432;8.680;2023-04-03T09:26:43;7.70;99.90
10417;DHT22;62605;49.432;8.680;2023-04-03T09:29:17;7.60;99.90
10417;DHT22;62605;49.432;8.680;2023-04-03T09:31:48;7.70;99.90
10417;DHT22;62605;49.432;8.680;2023-04-03T09:34:20;7.40;99.90
10417;DHT22;62605;49.432;8.680;2023-04-03T09:36:50;7.30;99.90
10417;DHT22;62605;49.432;8.680;2023-04-03T09:39:21;7.10;99.90
10417;DHT22;62605;49.432;8.680;2023-04-03T09:42:01;6.80;99.90
10417;DHT22;62605;49.432;8.680;2023-04-03T09:44:35;6.90;99.90
10417;DHT22;62605;49.432;8.680;2023-04-03T09:47:19;7.40;99.90
10417;DHT22;62605;49.432;8.680;2023-04-03T09:49:49;7.70;99.90
10417;DHT22;62605;49.432;8.680;2023-04-03T09:52:22;8.00;99.90
10417;DHT22;62605;49.432;8.680;2023-04-03T09:54:51;8.50;99.90
10417;DHT22;62605;49.432;8.680;2023-04-03T09:57:19;8.50;99.90
10417;DHT22;62605;49.432;8.680;2023-04-03T09:59:55;8.40;99.90
10417;DHT22;62605;49.432;8.680;2023-04-03T10:02:35;8.20;99.90
10417;DHT22;62605;49.432;8.680;2023-04-03T10:05:03;8.10;99.40
10417;DHT22;62605;49.432;8.680;2023-04-03T10:07:34;8.10;94.20
10417;DHT22;62605;49.432;8.680;2023-04-03T10:10:17;8.00;84.80
10417;DHT22;62605;49.432;8.680;2023-04-03T10:12:45;8.20;86.70
10417;DHT22;62605;49.432;8.680;2023-04-03T10:15:14;8.50;78.40
10417;DHT22;62605;49.432;8.680;2023-04-03T10:17:51;8.40;72.90
10417;DHT22;62605;49.432;8.680;2023-04-03T10:20:27;8.30;59.50
10417;DHT22;62605;49.432;8.680;2023-04-03T10:23:05;8.30;49.30
10417;DHT22;62605;49.432;8.680;2023-04-03T10:25:43;7.90;31.50
10417;DHT22;62605;49.432;8.680;2023-04-03T10:28:20;8.00;25.40
10417;DHT22;62605;49.432;8.680;2023-04-03T10:30:55;7.90;22.90
10417;DHT22;62605;49.432;8.680;2023-04-03T10:33:39;8.20;22.20
10417;DHT22;62605;49.432;8.680;2023-04-03T10:36:19;8.40;21.40
10417;DHT22;62605;49.432;8.680;2023-04-03T10:38:59;8.50;19.00
10417;DHT22;62605;49.432;8.680;2023-04-03T10:41:38;8.90;23.10
10417;DHT22;62605;49.432;8.680;2023-04-03T10:44:14;8.60;9.00
10417;DHT22;62605;49.432;8.680;2023-04-03T10:46:47;8.70;7.80
10417;DHT22;62605;49.432;8.680;2023-04-03T10:49:25;8.10;1.00
10417;DHT22;62605;49.432;8.680;2023-04-03T10:51:59;8.80;2.40
10417;DHT22;62605;49.432;8.680;2023-04-03T10:54:35;9.40;10.20
10417;DHT22;62605;49.432;8.680;2023-04-03T10:57:08;9.50;3.10
10417;DHT22;62605;49.432;8.680;2023-04-03T10:59:38;9.20;1.00
10417;DHT22;62605;49.432;8.680;2023-04-03T11:02:13;8.70;1.00
10417;DHT22;62605;49.432;8.680;2023-04-03T11:04:44;8.70;1.00
10417;DHT22;62605;49.432;8.680;2023-04-03T11:07:17;8.60;1.00
10417;DHT22;62605;49.432;8.680;2023-04-03T11:09:46;8.50;1.00
10417;DHT22;62605;49.432;8.680;2023-04-03T11:12:21;8.60;1.00
10417;DHT22;62605;49.432;8.680;2023-04-03T11:14:52;8.70;1.00
10417;DHT22;62605;49.432;8.680;2023-04-03T11:17:27;8.60;1.00
10417;DHT22;62605;49.432;8.680;2023-04-03T11:20:00;9.00;1.00
10417;DHT22;62605;49.432;8.680;2023-04-03T11:22:32;9.50;1.00
10417;DHT22;62605;49.432;8.680;2023-04-03T11:25:04;9.20;1.00
10417;DHT22;62605;49.432;8.680;2023-04-03T11:27:40;9.00;1.00
10417;DHT22;62605;49.432;8.680;2023-04-03T11:47:46;8.60;1.00
10417;DHT22;62605;49.432;8.680;2023-04-03T11:50:39;8.40;1.00
10417;DHT22;62605;49.432;8.680;2023-04-03T11:53:32;8.40;1.00
10417;DHT22;62605;49.432;8.680;2023-04-03T11:56:27;8.20;1.00
10417;DHT22;62605;49.432;8.680;2023-04-03T11:59:15;8.20;1.00
10417;DHT22;62605;49.432;8.680;2023-04-03T12:01:46;8.30;1.00
10417;DHT22;62605;49.432;8.680;2023-04-03T12:04:17;8.40;1.00
10417;DHT22;62605;49.432;8.680;2023-04-03T12:07:11;8.30;1.00
10417;DHT22;62605;49.432;8.680;2023-04-03T12:12:58;8.60;1.00
10417;DHT22;62605;49.432;8.680;2023-04-03T12:15:49;8.20;1.00
10417;DHT22;62605;49.432;8.680;2023-04-03T12:18:57;7.90;1.00
10417;DHT22;62605;49.432;8.680;2023-04-03T12:24:28;7.90;1.00
10417;DHT22;62605;49.432;8.680;2023-04-03T12:30:10;8.50;1.00
10417;DHT22;62605;49.432;8.680;2023-04-03T12:33:15;8.50;1.00
10417;DHT22;62605;49.432;8.680;2023-04-03T12:35:54;8.50;1.00
10417;DHT22;62605;49.432;8.680;2023-04-03T12:38:41;8.60;1.00
10417;DHT22;62605;49.432;8.680;2023-04-03T12:41:23;8.80;1.00
10417;DHT22;62605;49.432;8.680;2023-04-03T12:44:07;8.60;1.00
10417;DHT22;62605;49.432;8.680;2023-04-03T12:46:42;8.60;1.00
10417;DHT22;62605;49.432;8.680;2023-04-03T12:49:22;8.70;1.00
10417;DHT22;62605;49.432;8.680;2023-04-03T12:51:52;8.70;1.00
10417;DHT22;62605;49.432;8.680;2023-04-03T12:54:23;8.70;1.00
10417;DHT22;62605;49.432;8.680;2023-04-03T12:59:47;8.50;1.00
10417;DHT22;62605;49.432;8.680;2023-04-03T13:02:21;8.70;1.00
10417;DHT22;62605;49.432;8.680;2023-04-03T13:04:50;9.00;1.00
10417;DHT22;62605;49.432;8.680;2023-04-03T13:07:22;9.90;1.00
10417;DHT22;62605;49.432;8.680;2023-04-03T13:10:04;9.90;1.00
10417;DHT22;62605;49.432;8.680;2023-04-03T13:12:33;10.00;1.00
10417;DHT22;62605;49.432;8.680;2023-04-03T13:15:12;10.30;1.00
10417;DHT22;62605;49.432;8.680;2023-04-03T13:17:41;10.40;1.00
10417;DHT22;62605;49.432;8.680;2023-04-03T13:20:16;10.20;1.00
10417;DHT22;62605;49.432;8.680;2023-04-03T13:22:49;10.10;1.00
10417;DHT22;62605;49.432;8.680;2023-04-03T13:25:21;10.60;1.00
10417;DHT22;62605;49.432;8.680;2023-04-03T13:27:49;9.90;1.00
10417;DHT22;62605;49.432;8.680;2023-04-03T13:30:26;10.50;1.00
10417;DHT22;62605;49.432;8.680;2023-04-03T13:32:54;9.90;1.00
10417;DHT22;62605;49.432;8.680;2023-04-03T13:35:31;9.40;1.00
10417;DHT22;62605;49.432;8.680;2023-04-03T13:38:00;9.00;1.00
10417;DHT22;62605;49.432;8.680;2023-04-03T13:40:28;8.40;1.00
10417;DHT22;62605;49.432;8.680;2023-04-03T13:43:01;8.60;1.00
10417;DHT22;62605;49.432;8.680;2023-04-03T13:45:31;8.60;1.00
10417;DHT22;62605;49.432;8.680;2023-04-03T13:48:11;8.30;1.00
10417;DHT22;62605;49.432;8.680;2023-04-03T13:50:58;8.20;1.00
10417;DHT22;62605;49.432;8.680;2023-04-03T13:53:26;8.80;1.00
10417;DHT22;62605;49.432;8.680;2023-04-03T13:56:07;9.50;1.00
10417;DHT22;62605;49.432;8.680;2023-04-03T13:58:35;9.50;1.00
10417;DHT22;62605;49.432;8.680;2023-04-03T14:01:10;9.00;1.00
10417;DHT22;62605;49.432;8.680;2023-04-03T14:03:43;8.80;1.00
10417;DHT22;62605;49.432;8.680;2023-04-03T14:06:12;8.80;1.00
10417;DHT22;62605;49.432;8.680;2023-04-03T14:08:40;8.60;1.00
10417;DHT22;62605;49.432;8.680;2023-04-03T14:11:12;8.40;1.00
10417;DHT22;62605;49.432;8.680;2023-04-03T14:13:41;8.80;1.00
10417;DHT22;62605;49.432;8.680;2023-04-03T14:16:14;9.00;1.00
10417;DHT22;62605;49.432;8.680;2023-04-03T14:18:43;9.10;1.00
10417;DHT22;62605;49.432;8.680;2023-04-03T14:21:11;9.20;1.00
10417;DHT22;62605;49.432;8.680;2023-04-03T14:23:39;9.20;1.00
10417;DHT22;62605;49.432;8.680;2023-04-03T14:26:10;9.10;1.00
10417;DHT22;62605;49.432;8.680;2023-04-03T14:28:39;9.20;1.00
10417;DHT22;62605;49.432;8.680;2023-04-03T14:31:06;9.10;1.00
10417;DHT22;62605;49.432;8.680;2023-04-03T14:33:35;9.20;1.00
10417;DHT22;62605;49.432;8.680;2023-04-03T14:36:05;9.60;1.00
10417;DHT22;62605;49.432;8.680;2023-04-03T14:38:32;9.70;1.00
10417;DHT22;62605;49.432;8.680;2023-04-03T14:41:00;9.80;1.00
10417;DHT22;62605;49.432;8.680;2023-04-03T14:43:27;9.80;1.00
10417;DHT22;62605;49.432;8.680;2023-04-03T14:45:55;9.90;1.00
10417;DHT22;62605;49.432;8.680;2023-04-03T14:48:25;9.60;1.00
10417;DHT22;62605;49.432;8.680;2023-04-03T14:50:55;9.50;1.00
10417;DHT22;62605;49.432;8.680;2023-04-03T14:53:23;9.60;1.00
10417;DHT22;62605;49.432;8.680;2023-04-03T14:55:52;10.00;1.00
10417;DHT22;62605;49.432;8.680;2023-04-03T14:58:20;9.60;1.00
10417;DHT22;62605;49.432;8.680;2023-04-03T15:00:48;9.30;1.00
10417;DHT22;62605;49.432;8.680;2023-04-03T15:03:16;9.50;1.00
10417;DHT22;62605;49.432;8.680;2023-04-03T15:05:45;9.60;1.00
10417;DHT22;62605;49.432;8.680;2023-04-03T15:08:19;9.80;1.00
10417;DHT22;62605;49.432;8.680;2023-04-03T15:10:47;10.20;1.00
10417;DHT22;62605;49.432;8.680;2023-04-03T15:13:15;10.10;1.00
10417;DHT22;62605;49.432;8.680;2023-04-03T15:15:43;10.30;1.00
10417;DHT22;62605;49.432;8.680;2023-04-03T15:18:15;9.70;1.00
10417;DHT22;62605;49.432;8.680;2023-04-03T15:20:43;9.60;1.00
10417;DHT22;62605;49.432;8.680;2023-04-03T15:23:12;9.30;1.00
10417;DHT22;62605;49.432;8.680;2023-04-03T15:25:43;8.90;1.00
10417;DHT22;62605;49.432;8.680;2023-04-03T15:28:18;9.10;1.00
10417;DHT22;62605;49.432;8.680;2023-04-03T15:30:47;10.00;1.00
10417;DHT22;62605;49.432;8.680;2023-04-03T15:33:14;10.10;1.00
10417;DHT22;62605;49.432;8.680;2023-04-03T15:35:42;10.30;1.00
10417;DHT22;62605;49.432;8.680;2023-04-03T15:38:09;10.30;1.00
10417;DHT22;62605;49.432;8.680;2023-04-03T15:40:38;10.50;1.00
10417;DHT22;62605;49.432;8.680;2023-04-03T15:43:07;10.70;1.00
10417;DHT22;62605;49.432;8.680;2023-04-03T15:45:36;10.30;1.00
10417;DHT22;62605;49.432;8.680;2023-04-03T15:48:04;9.80;1.00
10417;DHT22;62605;49.432;8.680;2023-04-03T15:50:33;9.80;1.00
10417;DHT22;62605;49.432;8.680;2023-04-03T15:53:00;10.10;1.00
10417;DHT22;62605;49.432;8.680;2023-04-03T15:55:29;9.80;1.00
10417;DHT22;62605;49.432;8.680;2023-04-03T15:57:58;10.20;1.00
10417;DHT22;62605;49.432;8.680;2023-04-03T16:00:27;10.30;1.00
10417;DHT22;62605;49.432;8.680;2023-04-03T16:02:58;10.20;1.00
10417;DHT22;62605;49.432;8.680;2023-04-03T16:05:27;10.10;1.00
10417;DHT22;62605;49.432;8.680;2023-04-03T16:07:54;9.90;1.00
10417;DHT22;62605;49.432;8.680;2023-04-03T16:10:21;9.90;1.00
10417;DHT22;62605;49.432;8.680;2023-04-03T16:12:48;10.00;1.00
10417;DHT22;62605;49.432;8.680;2023-04-03T16:15:15;10.00;1.00
10417;DHT22;62605;49.432;8.680;2023-04-03T16:17:45;9.90;1.00
10417;DHT22;62605;49.432;8.680;2023-04-03T16:20:14;9.70;1.00
10417;DHT22;62605;49.432;8.680;2023-04-03T16:22:42;9.90;1.00
10417;DHT22;62605;49.432;8.680;2023-04-03T16:25:10;9.50;1.00
10417;DHT22;62605;49.432;8.680;2023-04-03T16:27:37;9.80;1.00
10417;DHT22;62605;49.432;8.680;2023-04-03T16:30:06;10.40;1.00
10417;DHT22;62605;49.432;8.680;2023-04-03T16:32:34;10.80;1.00
10417;DHT22;62605;49.432;8.680;2023-04-03T16:35:04;11.00;1.00
10417;DHT22;62605;49.432;8.680;2023-04-03T16:37:32;11.00;1.00
10417;DHT22;62605;49.432;8.680;2023-04-03T16:39:59;10.80;1.00
10417;DHT22;62605;49.432;8.680;2023-04-03T16:42:26;11.20;1.00
10417;DHT22;62605;49.432;8.680;2023-04-03T16:44:53;11.00;1.00
10417;DHT22;62605;49.432;8.680;2023-04-03T16:47:24;11.10;1.00
10417;DHT22;62605;49.432;8.680;2023-04-03T16:49:52;10.70;1.00
10417;DHT22;62605;49.432;8.680;2023-04-03T16:52:20;10.50;1.00
10417;DHT22;62605;49.432;8.680;2023-04-03T16:54:47;10.50;1.00
10417;DHT22;62605;49.432;8.680;2023-04-03T16:57:15;10.60;1.00
10417;DHT22;62605;49.432;8.680;2023-04-03T16:59:42;10.40;1.00
10417;DHT22;62605;49.432;8.680;2023-04-03T17:02:10;10.30;1.00
10417;DHT22;62605;49.432;8.680;2023-04-03T17:04:37;10.10;1.00
10417;DHT22;62605;49.432;8.680;2023-04-03T17:07:04;9.30;1.00
10417;DHT22;62605;49.432;8.680;2023-04-03T17:09:33;9.50;1.00
10417;DHT22;62605;49.432;8.680;2023-04-03T17:12:01;8.80;1.00
10417;DHT22;62605;49.432;8.680;2023-04-03T17:14:28;8.70;1.00
10417;DHT22;62605;49.432;8.680;2023-04-03T17:16:56;8.70;1.00
10417;DHT22;62605;49.432;8.680;2023-04-03T17:19:23;8.30;1.00
10417;DHT22;62605;49.432;8.680;2023-04-03T17:21:51;8.30;1.00